Time;durP1;ratioP1;P1;durP2;ratioP2;P2;SDS_P1;SDS_P2;PMS_P1;PMS_P2;Temp;Humidity;BMP_temperature;BMP_pressure;BME280_temperature;BME280_humidity;BME280_pressure;Samples;Min_cycle;Max_cycle;Signal;HPM_P1;HPM_P2
2023/11/29 00:01:58;;;;;;;;;;;;;;;-6.43;80.04;100051.48;105640;1261;61314;-77
2023/11/29 00:04:25;;;;;;;;;;;;;;;-6.46;80.09;100056.27;105809;1263;125946;-81
2023/11/29 00:06:51;;;;;;;;;;;;;;;-6.46;80.19;100057.23;105964;1261;75166;-82
2023/11/29 00:09:18;;;;;;;;;;;;;;;-6.47;80.39;100061.80;105957;1259;66927;-81
2023/11/29 00:11:45;;;;;;;;;;;;;;;-6.47;80.60;100056.49;105764;1259;125815;-82
2023/11/29 00:14:12;;;;;;;;;;;;;;;-6.47;80.38;100056.36;105987;1262;61223;-82
2023/11/29 00:16:38;;;;;;;;;;;;;;;-6.46;80.73;100058.14;105827;1259;125587;-77
2023/11/29 00:19:05;;;;;;;;;;;;;;;-6.45;80.36;100058.20;105892;1263;73942;-76
2023/11/29 00:21:32;;;;;;;;;;;;;;;-6.45;80.69;100058.90;105734;1260;66317;-77
2023/11/29 00:23:59;;;;;;;;;;;;;;;-6.42;80.71;100060.77;105827;1260;125765;-77
2023/11/29 00:26:26;;;;;;;;;;;;;;;-6.40;80.75;100067.06;105983;1260;61218;-81
2023/11/29 00:28:53;;;;;;;;;;;;;;;-6.40;80.65;100065.71;105912;1259;126234;-81
2023/11/29 00:31:19;;;;;;;;;;;;;;;-6.42;80.59;100067.27;105980;1262;74650;-81
2023/11/29 00:33:46;;;;;;;;;;;;;;;-6.44;80.42;100068.30;105716;1259;126795;-76
2023/11/29 00:36:13;;;;;;;;;;;;;;;-6.45;80.69;100069.62;105888;1260;71255;-76
2023/11/29 00:38:39;;;;;;;;;;;;;;;-6.45;80.63;100069.96;105898;1260;62229;-76
2023/11/29 00:41:06;;;;;;;;;;;;;;;-6.45;80.80;100072.39;105644;1259;126395;-75
2023/11/29 00:43:35;;;;;;;;;;;;;;;-6.45;80.73;100075.74;105826;1260;74228;-77
2023/11/29 00:46:03;;;;;;;;;;;;;;;-6.47;80.67;100080.42;105708;1259;125425;-82
2023/11/29 00:48:30;;;;;;;;;;;;;;;-6.47;80.47;100077.86;105915;1262;71448;-76
2023/11/29 00:50:57;;;;;;;;;;;;;;;-6.48;80.66;100079.63;105760;1260;61319;-81
2023/11/29 00:53:24;;;;;;;;;;;;;;;-6.51;80.38;100081.11;105840;1259;125655;-76
2023/11/29 00:55:51;;;;;;;;;;;;;;;-6.53;80.55;100082.58;105826;1260;73264;-76
2023/11/29 00:58:18;;;;;;;;;;;;;;;-6.55;80.43;100083.25;105818;1259;125465;-77
2023/11/29 01:00:44;;;;;;;;;;;;;;;-6.57;80.41;100081.23;105727;1261;71937;-75
2023/11/29 01:03:11;;;;;;;;;;;;;;;-6.58;80.39;100085.11;105747;1259;61291;-77
2023/11/29 01:05:38;;;;;;;;;;;;;;;-6.60;80.46;100084.28;105975;1259;125333;-83
2023/11/29 01:08:04;;;;;;;;;;;;;;;-6.60;80.40;100086.80;106561;1262;74789;-82
2023/11/29 01:10:31;;;;;;;;;;;;;;;-6.62;80.49;100092.73;106368;1259;127067;-82
2023/11/29 01:12:58;;;;;;;;;;;;;;;-6.65;80.41;100090.89;106502;1259;71931;-82
2023/11/29 01:15:24;;;;;;;;;;;;;;;-6.64;80.54;100090.90;106424;1259;59262;-75
2023/11/29 01:17:51;;;;;;;;;;;;;;;-6.64;80.32;100095.38;105703;1261;125234;-81
2023/11/29 01:20:18;;;;;;;;;;;;;;;-6.65;80.52;100091.02;106565;1261;74531;-76
2023/11/29 01:22:45;;;;;;;;;;;;;;;-6.63;80.66;100093.77;105852;1258;126316;-83
2023/11/29 01:25:11;;;;;;;;;;;;;;;-6.61;80.81;100091.82;105979;1262;71465;-76
2023/11/29 01:27:38;;;;;;;;;;;;;;;-6.63;80.51;100093.24;105781;1263;125674;-80
2023/11/29 01:30:05;;;;;;;;;;;;;;;-6.65;80.86;100096.48;106036;1259;61271;-81
2023/11/29 01:32:32;;;;;;;;;;;;;;;-6.66;80.43;100098.11;105882;1264;73177;-82
2023/11/29 01:34:59;;;;;;;;;;;;;;;-6.69;80.39;100099.04;105901;1259;126384;-82
2023/11/29 01:37:25;;;;;;;;;;;;;;;-6.71;80.37;100103.66;106027;1261;72724;-82
2023/11/29 01:39:52;;;;;;;;;;;;;;;-6.73;80.69;100100.60;105794;1260;125959;-81
2023/11/29 01:42:19;;;;;;;;;;;;;;;-6.73;80.57;100102.69;106023;1259;61260;-82
2023/11/29 01:44:46;;;;;;;;;;;;;;;-6.73;80.64;100103.52;105875;1259;73161;-81
2023/11/29 01:47:14;;;;;;;;;;;;;;;-6.72;80.58;100101.36;105929;1261;125266;-81
2023/11/29 01:49:41;;;;;;;;;;;;;;;-6.73;80.61;100100.29;106103;1259;72751;-76
2023/11/29 01:52:08;;;;;;;;;;;;;;;-6.73;80.65;100101.63;105601;1260;125808;-76
2023/11/29 01:54:34;;;;;;;;;;;;;;;-6.72;81.03;100098.48;106031;1259;61284;-82
2023/11/29 01:57:02;;;;;;;;;;;;;;;-6.69;80.99;100095.47;105792;1263;75295;-75
2023/11/29 01:59:29;;;;;;;;;;;;;;;-6.65;81.03;100100.59;105760;1258;125051;-76
2023/11/29 02:01:56;;;;;;;;;;;;;;;-6.61;81.15;100102.40;105855;1258;71417;-76
2023/11/29 02:04:22;;;;;;;;;;;;;;;-6.59;81.10;100100.54;105921;1263;125377;-81
2023/11/29 02:06:51;;;;;;;;;;;;;;;-6.58;81.06;100100.34;105955;1260;61362;-81
2023/11/29 02:09:18;;;;;;;;;;;;;;;-6.54;81.21;100103.68;106018;1262;74723;-82
2023/11/29 02:11:44;;;;;;;;;;;;;;;-6.51;81.22;100109.09;105922;1259;125113;-81
2023/11/29 02:14:11;;;;;;;;;;;;;;;-6.49;81.25;100112.64;106061;1259;72870;-81
2023/11/29 02:16:38;;;;;;;;;;;;;;;-6.47;81.22;100115.52;105779;1259;126419;-82
2023/11/29 02:19:04;;;;;;;;;;;;;;;-6.45;81.17;100114.19;106001;1258;61293;-80
2023/11/29 02:21:31;;;;;;;;;;;;;;;-6.41;81.21;100117.52;105954;1258;74843;-80
2023/11/29 02:24:03;;;;;;;;;;;;;;;-6.38;81.24;100114.17;105837;1263;125040;-81
2023/11/29 02:26:30;;;;;;;;;;;;;;;-6.36;81.24;100115.76;105989;1259;74244;-80
2023/11/29 02:28:57;;;;;;;;;;;;;;;-6.33;81.41;100115.66;105791;1265;125805;-80
2023/11/29 02:31:23;;;;;;;;;;;;;;;-6.32;81.31;100115.04;106005;1258;61274;-81
2023/11/29 02:33:50;;;;;;;;;;;;;;;-6.31;81.16;100113.23;105852;1259;125272;-81
2023/11/29 02:36:17;;;;;;;;;;;;;;;-6.31;81.27;100111.05;106060;1259;66341;-81
2023/11/29 02:38:43;;;;;;;;;;;;;;;-6.30;80.83;100114.72;106076;1262;74146;-82
2023/11/29 02:41:10;;;;;;;;;;;;;;;-6.30;80.84;100112.96;105872;1259;124905;-82
2023/11/29 02:43:37;;;;;;;;;;;;;;;-6.31;80.96;100110.52;106030;1259;61398;-77
2023/11/29 02:46:03;;;;;;;;;;;;;;;-6.31;80.79;100110.16;105783;1259;126390;-85
2023/11/29 02:48:30;;;;;;;;;;;;;;;-6.32;80.83;100114.91;105914;1259;65625;-76
2023/11/29 02:50:57;;;;;;;;;;;;;;;-6.31;81.07;100113.94;105735;1260;72799;-76
2023/11/29 02:53:23;;;;;;;;;;;;;;;-6.31;81.03;100118.05;105680;1264;127976;-77
2023/11/29 02:55:50;;;;;;;;;;;;;;;-6.31;80.95;100115.77;105654;1264;61258;-75
2023/11/29 02:58:17;;;;;;;;;;;;;;;-6.32;80.83;100118.27;105750;1258;125717;-76
2023/11/29 03:00:43;;;;;;;;;;;;;;;-6.33;80.69;100122.65;105646;1258;66177;-77
2023/11/29 03:03:10;;;;;;;;;;;;;;;-6.35;80.81;100124.88;105873;1258;72402;-76
2023/11/29 03:05:37;;;;;;;;;;;;;;;-6.35;80.76;100121.41;105771;1259;124997;-76
2023/11/29 03:08:04;;;;;;;;;;;;;;;-6.38;80.59;100119.52;105813;1263;61263;-81
2023/11/29 03:10:31;;;;;;;;;;;;;;;-6.39;80.86;100118.73;105937;1259;126579;-81
2023/11/29 03:12:57;;;;;;;;;;;;;;;-6.40;80.88;100118.67;105988;1262;66314;-76
2023/11/29 03:15:24;;;;;;;;;;;;;;;-6.40;80.61;100120.02;105856;1259;74143;-82
2023/11/29 03:17:51;;;;;;;;;;;;;;;-6.40;80.68;100124.80;105799;1259;126401;-80
2023/11/29 03:20:17;;;;;;;;;;;;;;;-6.41;80.66;100121.48;106059;1262;61857;-76
2023/11/29 03:22:44;;;;;;;;;;;;;;;-6.42;80.48;100118.69;105706;1259;125422;-76
2023/11/29 03:25:11;;;;;;;;;;;;;;;-6.42;80.73;100118.12;105733;1259;66254;-76
2023/11/29 03:27:38;;;;;;;;;;;;;;;-6.42;80.86;100117.95;105754;1260;125194;-76
2023/11/29 03:30:05;;;;;;;;;;;;;;;-6.44;80.68;100116.95;106000;1260;62116;-81
2023/11/29 03:32:32;;;;;;;;;;;;;;;-6.46;80.48;100114.81;106086;1260;61117;-81
2023/11/29 03:34:58;;;;;;;;;;;;;;;-6.48;80.45;100112.94;105982;1260;125403;-82
2023/11/29 03:37:25;;;;;;;;;;;;;;;-6.49;80.56;100115.50;105979;1259;66410;-76
2023/11/29 03:39:52;;;;;;;;;;;;;;;-6.50;80.76;100115.44;105832;1258;125184;-75
2023/11/29 03:42:18;;;;;;;;;;;;;;;-6.52;80.36;100110.47;105936;1262;61122;-75
2023/11/29 03:44:45;;;;;;;;;;;;;;;-6.55;80.49;100106.52;105912;1260;61652;-80
2023/11/29 03:47:12;;;;;;;;;;;;;;;-6.57;80.59;100107.05;105888;1259;125794;-81
2023/11/29 03:49:39;;;;;;;;;;;;;;;-6.58;80.45;100106.10;105828;1259;65576;-81
2023/11/29 03:52:05;;;;;;;;;;;;;;;-6.59;80.55;100104.84;105657;1259;126136;-74
2023/11/29 03:54:32;;;;;;;;;;;;;;;-6.60;80.47;100100.81;105737;1264;61291;-76
2023/11/29 03:56:59;;;;;;;;;;;;;;;-6.64;80.15;100101.05;105981;1260;59575;-81
2023/11/29 03:59:25;;;;;;;;;;;;;;;-6.69;80.35;100100.73;105858;1261;125568;-77
2023/11/29 04:01:52;;;;;;;;;;;;;;;-6.73;80.34;100095.70;105773;1260;66245;-76
2023/11/29 04:04:19;;;;;;;;;;;;;;;-6.76;80.38;100099.64;105684;1261;125233;-76
2023/11/29 04:06:45;;;;;;;;;;;;;;;-6.78;80.41;100101.50;105845;1261;61160;-75
2023/11/29 04:09:12;;;;;;;;;;;;;;;-6.82;80.26;100103.95;105917;1260;61275;-84
2023/11/29 04:11:39;;;;;;;;;;;;;;;-6.85;80.52;100105.06;106074;1262;125061;-84
2023/11/29 04:14:06;;;;;;;;;;;;;;;-6.88;80.30;100105.38;106088;1260;66288;-85
2023/11/29 04:16:34;;;;;;;;;;;;;;;-6.88;80.35;100102.42;105984;1259;124979;-84
2023/11/29 04:19:01;;;;;;;;;;;;;;;-6.89;80.20;100102.56;106050;1263;61897;-77
2023/11/29 04:21:35;;;;;;;;;;;;;;;-6.90;80.47;100099.42;105699;1264;61239;-84
2023/11/29 04:24:01;;;;;;;;;;;;;;;-6.90;80.51;100104.33;106048;1260;125113;-84
2023/11/29 04:26:29;;;;;;;;;;;;;;;-6.90;80.65;100104.30;105972;1260;64006;-84
2023/11/29 04:28:56;;;;;;;;;;;;;;;-6.90;80.67;100103.66;105925;1259;125070;-84
2023/11/29 04:31:24;;;;;;;;;;;;;;;-6.89;80.62;100100.80;106000;1260;61392;-83
2023/11/29 04:33:50;;;;;;;;;;;;;;;-6.89;80.76;100099.36;105967;1259;126603;-84
2023/11/29 04:36:17;;;;;;;;;;;;;;;-6.88;80.54;100096.16;105849;1265;73858;-83
2023/11/29 04:38:44;;;;;;;;;;;;;;;-6.88;80.64;100097.48;105837;1261;64793;-84
2023/11/29 04:41:11;;;;;;;;;;;;;;;-6.87;80.70;100095.55;105794;1261;125057;-77
2023/11/29 04:43:37;;;;;;;;;;;;;;;-6.87;80.84;100100.02;105977;1261;61411;-85
2023/11/29 04:46:04;;;;;;;;;;;;;;;-6.87;80.93;100099.68;105835;1259;126032;-85
2023/11/29 04:48:31;;;;;;;;;;;;;;;-6.86;80.75;100096.11;106014;1259;74199;-83
2023/11/29 04:50:57;;;;;;;;;;;;;;;-6.88;80.90;100092.92;106154;1259;65452;-83
2023/11/29 04:53:24;;;;;;;;;;;;;;;-6.90;80.75;100094.13;106034;1259;125009;-85
2023/11/29 04:55:55;;;;;;;;;;;;;;;-6.93;80.72;100094.23;106232;1262;61164;-85
2023/11/29 04:58:23;;;;;;;;;;;;;;;-6.94;80.54;100095.45;106628;1259;126235;-77
2023/11/29 05:00:50;;;;;;;;;;;;;;;-6.98;80.42;100097.34;105803;1262;73464;-77
2023/11/29 05:03:18;;;;;;;;;;;;;;;-6.99;80.37;100097.23;106172;1266;65021;-85
2023/11/29 05:05:45;;;;;;;;;;;;;;;-7.02;80.47;100095.13;106556;1259;125474;-77
2023/11/29 05:08:12;;;;;;;;;;;;;;;-7.05;80.51;100098.95;106417;1263;61271;-77
2023/11/29 05:10:38;;;;;;;;;;;;;;;-7.09;80.43;100096.46;106363;1259;125665;-85
2023/11/29 05:13:06;;;;;;;;;;;;;;;-7.11;80.30;100096.25;106320;1259;75403;-79
2023/11/29 05:15:34;;;;;;;;;;;;;;;-7.13;80.39;100099.45;106548;1259;66236;-83
2023/11/29 05:18:01;;;;;;;;;;;;;;;-7.15;80.54;100100.69;106519;1259;125019;-83
2023/11/29 05:20:28;;;;;;;;;;;;;;;-7.17;80.61;100098.42;106574;1264;61198;-84
2023/11/29 05:22:55;;;;;;;;;;;;;;;-7.19;80.55;100096.41;106673;1259;123973;-80
2023/11/29 05:25:21;;;;;;;;;;;;;;;-7.22;80.39;100098.08;106852;1263;74711;-80
2023/11/29 05:27:50;;;;;;;;;;;;;;;-7.23;80.41;100099.69;106406;1259;125916;-80
2023/11/29 05:30:17;;;;;;;;;;;;;;;-7.23;80.61;100097.99;106757;1259;72641;-78
2023/11/29 05:32:45;;;;;;;;;;;;;;;-7.25;80.48;100100.71;105935;1263;61307;-76
2023/11/29 05:35:12;;;;;;;;;;;;;;;-7.27;80.46;100100.21;106366;1259;125272;-79
2023/11/29 05:37:40;;;;;;;;;;;;;;;-7.28;80.56;100106.07;106533;1259;72455;-90
2023/11/29 05:40:08;;;;;;;;;;;;;;;-7.30;80.49;100103.36;106544;1259;125994;-79
2023/11/29 05:42:35;;;;;;;;;;;;;;;-7.30;80.43;100112.59;106308;1259;72511;-79
2023/11/29 05:45:03;;;;;;;;;;;;;;;-7.29;80.45;100117.06;106524;1259;61359;-84
2023/11/29 05:47:30;;;;;;;;;;;;;;;-7.29;80.30;100117.24;106405;1259;126118;-80
2023/11/29 05:49:59;;;;;;;;;;;;;;;-7.29;80.39;100117.79;106512;1259;74787;-80
2023/11/29 05:52:26;;;;;;;;;;;;;;;-7.29;80.56;100117.60;106136;1259;126354;-75
2023/11/29 05:54:53;;;;;;;;;;;;;;;-7.30;80.33;100115.30;105664;1259;71508;-76
2023/11/29 05:57:20;;;;;;;;;;;;;;;-7.30;80.47;100119.75;106517;1259;59691;-81
2023/11/29 05:59:46;;;;;;;;;;;;;;;-7.30;80.22;100123.46;106360;1261;125500;-83
2023/11/29 06:02:18;;;;;;;;;;;;;;;-7.30;80.10;100122.94;106525;1259;75428;-82
2023/11/29 06:04:45;;;;;;;;;;;;;;;-7.31;80.27;100121.36;106365;1259;125079;-82
2023/11/29 06:07:11;;;;;;;;;;;;;;;-7.29;80.34;100120.88;106337;1259;72766;-81
2023/11/29 06:09:39;;;;;;;;;;;;;;;-7.28;80.30;100121.46;106321;1259;61296;-82
2023/11/29 06:12:09;;;;;;;;;;;;;;;-7.25;80.52;100127.65;106428;1259;61128;-81
2023/11/29 06:14:37;;;;;;;;;;;;;;;-7.25;80.21;100125.16;106447;1259;74695;-81
2023/11/29 06:17:03;;;;;;;;;;;;;;;-7.27;80.17;100127.20;106477;1263;125242;-81
2023/11/29 06:19:30;;;;;;;;;;;;;;;-7.27;80.36;100129.73;106295;1259;71365;-82
2023/11/29 06:21:57;;;;;;;;;;;;;;;-7.27;80.41;100127.67;106440;1259;126921;-81
2023/11/29 06:24:24;;;;;;;;;;;;;;;-7.26;80.17;100129.95;106625;1263;61271;-81
2023/11/29 06:26:51;;;;;;;;;;;;;;;-7.25;80.51;100133.30;106700;1260;73076;-85
2023/11/29 06:29:18;;;;;;;;;;;;;;;-7.21;80.50;100132.02;106423;1259;125748;-81
2023/11/29 06:31:44;;;;;;;;;;;;;;;-7.20;80.59;100137.27;106718;1260;72603;-81
2023/11/29 06:34:11;;;;;;;;;;;;;;;-7.16;80.46;100141.69;106477;1264;125467;-81
2023/11/29 06:36:38;;;;;;;;;;;;;;;-7.13;80.29;100143.50;106752;1264;61160;-80
2023/11/29 06:39:23;;;;;;;;;;;;;;;-7.07;80.26;100148.40;103568;1291;599517;-80
2023/11/29 06:41:50;;;;;;;;;;;;;;;-7.06;80.29;100157.45;105750;1272;123418;-80
2023/11/29 06:44:16;;;;;;;;;;;;;;;-7.02;80.26;100161.63;105859;1274;59324;-81
2023/11/29 06:46:43;;;;;;;;;;;;;;;-6.99;79.96;100158.34;105679;1270;123882;-81
2023/11/29 06:49:11;;;;;;;;;;;;;;;-6.95;80.08;100159.30;105997;1270;65082;-81
2023/11/29 06:51:41;;;;;;;;;;;;;;;-6.92;80.00;100163.35;106061;1272;72733;-81
2023/11/29 06:54:08;;;;;;;;;;;;;;;-6.88;80.17;100167.79;105917;1269;241302;-81
2023/11/29 06:56:35;;;;;;;;;;;;;;;-6.83;80.06;100173.48;106091;1266;59773;-81
2023/11/29 06:59:04;;;;;;;;;;;;;;;-6.77;80.03;100174.80;106482;1263;124007;-81
2023/11/29 07:01:31;;;;;;;;;;;;;;;-6.73;80.19;100178.44;106566;1263;67178;-81
2023/11/29 07:03:58;;;;;;;;;;;;;;;-6.68;79.91;100183.66;106760;1257;124321;-84
2023/11/29 07:06:26;;;;;;;;;;;;;;;-6.60;80.06;100188.16;106613;1260;60219;-85
2023/11/29 07:08:52;;;;;;;;;;;;;;;-6.51;80.12;100194.56;106932;1257;59675;-85
2023/11/29 07:11:19;;;;;;;;;;;;;;;-6.42;80.07;100195.46;106681;1258;123616;-85
2023/11/29 07:13:46;;;;;;;;;;;;;;;-6.35;80.04;100192.43;106872;1255;66017;-85
2023/11/29 07:16:12;;;;;;;;;;;;;;;-6.29;80.01;100196.19;106868;1254;124010;-85
2023/11/29 07:18:39;;;;;;;;;;;;;;;-6.24;79.88;100201.09;106911;1258;59182;-85
2023/11/29 07:21:06;;;;;;;;;;;;;;;-6.19;80.01;100203.33;106856;1258;59641;-85
2023/11/29 07:23:34;;;;;;;;;;;;;;;-6.11;79.90;100202.48;106672;1260;123590;-85
2023/11/29 07:26:01;;;;;;;;;;;;;;;-6.01;79.93;100199.52;106701;1255;65088;-85
2023/11/29 07:28:27;;;;;;;;;;;;;;;-5.93;79.77;100197.79;106404;1260;123589;-85
2023/11/29 07:30:54;;;;;;;;;;;;;;;-5.83;79.77;100200.45;106616;1260;59750;-86
2023/11/29 07:33:21;;;;;;;;;;;;;;;-5.73;80.07;100197.13;106818;1254;60167;-85
2023/11/29 07:35:48;;;;;;;;;;;;;;;-5.63;79.68;100198.92;106696;1259;123633;-85
2023/11/29 07:38:14;;;;;;;;;;;;;;;-5.56;79.64;100196.74;106730;1255;64089;-85
2023/11/29 07:40:41;;;;;;;;;;;;;;;-5.50;79.62;100198.43;106635;1254;123619;-85
2023/11/29 07:43:09;;;;;;;;;;;;;;;-5.41;79.63;100201.70;106696;1254;59698;-85
2023/11/29 07:45:35;;;;;;;;;;;;;;;-5.30;79.67;100207.05;106702;1254;60129;-85
2023/11/29 07:48:02;;;;;;;;;;;;;;;-5.21;79.46;100203.44;106579;1255;124110;-84
2023/11/29 07:50:29;;;;;;;;;;;;;;;-5.13;79.43;100207.69;106665;1254;66318;-85
2023/11/29 07:52:56;;;;;;;;;;;;;;;-5.03;79.34;100214.11;106644;1260;122530;-84
2023/11/29 07:55:22;;;;;;;;;;;;;;;-4.93;79.36;100215.55;106777;1255;59573;-85
2023/11/29 07:57:50;;;;;;;;;;;;;;;-4.85;79.23;100216.64;106763;1254;123806;-84
2023/11/29 08:00:17;;;;;;;;;;;;;;;-4.80;78.92;100216.53;106844;1254;72117;-85
2023/11/29 08:02:44;;;;;;;;;;;;;;;-4.72;78.96;100212.55;106780;1259;64703;-85
2023/11/29 08:05:10;;;;;;;;;;;;;;;-4.64;78.98;100211.41;106748;1254;123602;-85
2023/11/29 08:07:37;;;;;;;;;;;;;;;-4.56;78.91;100204.91;106760;1254;58477;-85
2023/11/29 08:10:07;;;;;;;;;;;;;;;-4.44;78.91;100200.45;106643;1254;124029;-84
2023/11/29 08:12:34;;;;;;;;;;;;;;;-4.34;78.73;100201.06;106669;1260;73208;-85
2023/11/29 08:15:01;;;;;;;;;;;;;;;-4.21;78.67;100205.30;106653;1254;64950;-85
2023/11/29 08:17:27;;;;;;;;;;;;;;;-4.09;78.52;100207.86;106636;1259;124739;-84
2023/11/29 08:19:54;;;;;;;;;;;;;;;-3.98;78.44;100210.90;106754;1254;59714;-84
2023/11/29 08:22:21;;;;;;;;;;;;;;;-3.90;78.32;100213.20;106467;1254;124504;-85
2023/11/29 08:24:48;;;;;;;;;;;;;;;-3.80;78.24;100210.17;106621;1257;71633;-85
2023/11/29 08:27:15;;;;;;;;;;;;;;;-3.69;78.12;100206.67;106853;1258;66148;-85
2023/11/29 08:29:42;;;;;;;;;;;;;;;-3.55;78.08;100206.48;106603;1260;124063;-86
2023/11/29 08:32:09;;;;;;;;;;;;;;;-3.41;77.97;100208.69;106630;1255;59635;-84
2023/11/29 08:34:36;;;;;;;;;;;;;;;-3.27;77.98;100202.64;106670;1254;124147;-85
2023/11/29 08:37:02;;;;;;;;;;;;;;;-3.10;77.86;100206.59;106625;1254;73060;-85
2023/11/29 08:39:30;;;;;;;;;;;;;;;-2.99;77.61;100207.72;106721;1257;64763;-85
2023/11/29 08:41:57;;;;;;;;;;;;;;;-2.87;77.51;100210.05;106600;1260;124308;-84
2023/11/29 08:44:24;;;;;;;;;;;;;;;-2.79;77.23;100207.52;106700;1254;59741;-84
2023/11/29 08:46:50;;;;;;;;;;;;;;;-2.69;77.11;100213.53;106675;1254;124619;-85
2023/11/29 08:49:17;;;;;;;;;;;;;;;-2.59;77.03;100214.74;106687;1254;72819;-85
2023/11/29 08:51:44;;;;;;;;;;;;;;;-2.50;76.90;100217.60;106650;1261;124534;-85
2023/11/29 08:54:11;;;;;;;;;;;;;;;-2.41;76.55;100217.70;106675;1254;71278;-85
2023/11/29 08:56:38;;;;;;;;;;;;;;;-2.31;76.66;100212.70;106613;1254;59706;-85
2023/11/29 08:59:05;;;;;;;;;;;;;;;-2.18;76.47;100212.23;106688;1254;123374;-85
2023/11/29 09:01:32;;;;;;;;;;;;;;;-2.06;76.33;100212.63;106667;1254;71949;-86
2023/11/29 09:03:59;;;;;;;;;;;;;;;-2.00;76.12;100213.75;106626;1254;123468;-84
2023/11/29 09:06:25;;;;;;;;;;;;;;;-1.90;76.09;100214.89;106733;1254;72740;-84
2023/11/29 09:08:53;;;;;;;;;;;;;;;-1.81;75.85;100212.24;106820;1254;59558;-85
2023/11/29 09:11:19;;;;;;;;;;;;;;;-1.71;75.62;100204.59;106647;1258;124299;-85
2023/11/29 09:13:48;;;;;;;;;;;;;;;-1.63;75.54;100200.30;106733;1254;71942;-85
2023/11/29 09:16:15;;;;;;;;;;;;;;;-1.58;75.24;100203.36;106554;1254;123472;-86
2023/11/29 09:18:44;;;;;;;;;;;;;;;-1.54;75.10;100205.66;106688;1254;71340;-84
2023/11/29 09:21:11;;;;;;;;;;;;;;;-1.50;74.89;100201.84;106562;1254;58497;-85
2023/11/29 09:23:38;;;;;;;;;;;;;;;-1.47;74.76;100197.91;106585;1254;124431;-84
2023/11/29 09:26:05;;;;;;;;;;;;;;;-1.52;74.29;100199.30;106701;1260;71815;-85
2023/11/29 09:28:31;;;;;;;;;;;;;;;-1.60;74.10;100196.92;106628;1257;123687;-84
2023/11/29 09:31:01;;;;;;;;;;;;;;;-1.66;73.91;100193.90;106608;1258;71186;-85
2023/11/29 09:33:29;;;;;;;;;;;;;;;-1.76;73.63;100194.47;106738;1254;57684;-84
2023/11/29 09:35:55;;;;;;;;;;;;;;;-1.87;73.60;100191.38;106690;1255;123640;-85
2023/11/29 09:38:22;;;;;;;;;;;;;;;-1.96;73.46;100193.58;106797;1257;72789;-85
2023/11/29 09:40:49;;;;;;;;;;;;;;;-2.03;73.55;100194.47;106624;1256;123569;-85
2023/11/29 09:43:16;;;;;;;;;;;;;;;-2.08;73.62;100193.94;106730;1254;71055;-85
2023/11/29 09:45:43;;;;;;;;;;;;;;;-2.09;73.73;100196.77;106573;1257;123594;-84
2023/11/29 09:48:10;;;;;;;;;;;;;;;-2.08;73.87;100194.27;106717;1259;60142;-84
2023/11/29 09:50:36;;;;;;;;;;;;;;;-2.05;73.62;100190.02;106731;1256;72913;-84
2023/11/29 09:53:03;;;;;;;;;;;;;;;-2.02;73.91;100190.58;106736;1257;123611;-85
2023/11/29 09:55:30;;;;;;;;;;;;;;;-1.97;73.95;100189.86;106817;1254;70520;-85
2023/11/29 09:57:58;;;;;;;;;;;;;;;-1.86;73.96;100193.98;106632;1254;123860;-85
2023/11/29 10:00:25;;;;;;;;;;;;;;;-1.73;73.79;100193.67;106693;1258;60115;-84
2023/11/29 10:02:52;;;;;;;;;;;;;;;-1.57;73.79;100191.73;106733;1254;71698;-85
2023/11/29 10:05:19;;;;;;;;;;;;;;;-1.39;73.77;100193.08;106656;1254;124057;-85
2023/11/29 10:07:46;;;;;;;;;;;;;;;-1.19;73.59;100190.90;106734;1254;71048;-85
2023/11/29 10:10:13;;;;;;;;;;;;;;;-1.01;73.52;100187.67;106494;1257;124432;-85
2023/11/29 10:12:42;;;;;;;;;;;;;;;-0.82;73.60;100187.48;106587;1260;59534;-85
2023/11/29 10:15:09;;;;;;;;;;;;;;;-0.63;73.34;100178.83;106462;1260;71512;-85
2023/11/29 10:17:36;;;;;;;;;;;;;;;-0.46;73.13;100177.23;106553;1260;124573;-85
2023/11/29 10:20:03;;;;;;;;;;;;;;;-0.32;72.95;100177.19;106653;1254;71332;-85
2023/11/29 10:22:29;;;;;;;;;;;;;;;-0.29;72.60;100177.05;106551;1259;125305;-84
2023/11/29 10:24:56;;;;;;;;;;;;;;;-0.22;72.32;100183.85;106689;1254;58617;-84
2023/11/29 10:27:23;;;;;;;;;;;;;;;-0.13;72.21;100187.06;106598;1260;71744;-85
2023/11/29 10:29:50;;;;;;;;;;;;;;;0.02;72.37;100188.36;106486;1255;124106;-85
2023/11/29 10:32:18;;;;;;;;;;;;;;;0.20;72.48;100190.08;106865;1254;72725;-85
2023/11/29 10:34:44;;;;;;;;;;;;;;;0.32;72.13;100187.82;106755;1254;123442;-85
2023/11/29 10:37:11;;;;;;;;;;;;;;;0.35;71.85;100190.89;106760;1254;60301;-84
2023/11/29 10:39:38;;;;;;;;;;;;;;;0.34;71.57;100194.11;106709;1254;73063;-85
2023/11/29 10:42:05;;;;;;;;;;;;;;;0.33;71.37;100195.08;106790;1254;123153;-85
2023/11/29 10:44:38;;;;;;;;;;;;;;;0.27;71.56;100198.88;106965;1257;71396;-86
2023/11/29 10:47:05;;;;;;;;;;;;;;;0.16;71.30;100200.54;106725;1254;123736;-85
2023/11/29 10:49:42;;;;;;;;;;;;;;;-0.01;70.91;100202.45;106877;1254;60462;-86
2023/11/29 10:52:09;;;;;;;;;;;;;;;-0.22;70.76;100204.87;106763;1254;124189;-86
2023/11/29 10:54:36;;;;;;;;;;;;;;;-0.37;70.96;100208.45;106831;1254;65074;-84
2023/11/29 10:57:03;;;;;;;;;;;;;;;-0.56;70.85;100218.34;106899;1254;71109;-85
2023/11/29 10:59:30;;;;;;;;;;;;;;;-0.74;70.67;100219.64;106599;1254;124394;-85
2023/11/29 11:01:57;;;;;;;;;;;;;;;-0.95;70.73;100218.53;106935;1257;60377;-84
2023/11/29 11:04:34;;;;;;;;;;;;;;;-1.14;70.63;100223.36;106746;1254;124060;-84
2023/11/29 11:07:02;;;;;;;;;;;;;;;-1.32;70.93;100219.16;106944;1257;66348;-84
2023/11/29 11:09:36;;;;;;;;;;;;;;;-1.48;70.91;100213.86;106976;1254;71703;-84
2023/11/29 11:12:04;;;;;;;;;;;;;;;-1.63;70.95;100211.35;106433;1254;123801;-85
2023/11/29 11:14:57;;;;;;;;;;;;;;;-1.71;71.18;100208.73;106982;1254;60203;-85
2023/11/29 11:17:24;;;;;;;;;;;;;;;-1.75;71.46;100206.25;106698;1254;124234;-86
2023/11/29 11:19:50;;;;;;;;;;;;;;;-1.72;71.85;100201.77;106753;1258;66187;-85
2023/11/29 11:22:29;;;;;;;;;;;;;;;-1.64;72.04;100199.77;106609;1254;124013;-85
2023/11/29 11:24:56;;;;;;;;;;;;;;;-1.55;72.07;100197.36;106754;1254;59240;-85
2023/11/29 11:27:39;;;;;;;;;;;;;;;-1.48;72.14;100195.05;106892;1255;60422;-85
2023/11/29 11:30:11;;;;;;;;;;;;;;;-1.41;72.14;100197.23;106621;1254;124115;-86
2023/11/29 11:32:39;;;;;;;;;;;;;;;-1.34;72.06;100198.20;106716;1257;66263;-85
2023/11/29 11:37:47;;;;;;;;;;;;;;;-1.25;72.21;100198.94;106729;1258;60457;-85
2023/11/29 11:40:14;;;;;;;;;;;;;;;-1.22;72.20;100202.89;106723;1254;123954;-85
2023/11/29 11:42:41;;;;;;;;;;;;;;;-1.22;72.04;100198.60;106783;1254;73913;-85
2023/11/29 11:45:08;;;;;;;;;;;;;;;-1.21;71.97;100200.77;106789;1259;66241;-84
2023/11/29 11:47:35;;;;;;;;;;;;;;;-1.20;72.05;100198.23;106705;1256;123995;-84
2023/11/29 11:50:02;;;;;;;;;;;;;;;-1.13;72.20;100194.38;106679;1254;60578;-85
2023/11/29 11:52:29;;;;;;;;;;;;;;;-1.01;72.34;100192.87;106644;1254;124355;-84
2023/11/29 11:54:56;;;;;;;;;;;;;;;-0.87;72.69;100194.73;106520;1254;73628;-86
2023/11/29 11:57:23;;;;;;;;;;;;;;;-0.73;72.56;100196.45;106856;1254;64789;-86
2023/11/29 11:59:50;;;;;;;;;;;;;;;-0.62;72.54;100193.20;106458;1256;124357;-86
2023/11/29 12:02:18;;;;;;;;;;;;;;;-0.53;72.21;100195.63;106511;1260;60434;-86
2023/11/29 12:04:44;;;;;;;;;;;;;;;-0.52;72.20;100195.85;106482;1254;124601;-85
2023/11/29 12:07:11;;;;;;;;;;;;;;;-0.53;72.13;100194.89;106748;1254;73729;-84
2023/11/29 12:09:38;;;;;;;;;;;;;;;-0.55;71.92;100197.52;106709;1254;66321;-84
2023/11/29 12:12:08;;;;;;;;;;;;;;;-0.61;71.80;100193.91;106691;1257;124334;-84
2023/11/29 12:14:35;;;;;;;;;;;;;;;-0.71;71.63;100187.63;106860;1254;60469;-84
2023/11/29 12:17:02;;;;;;;;;;;;;;;-0.78;71.57;100189.77;106617;1254;124427;-85
2023/11/29 12:19:29;;;;;;;;;;;;;;;-0.85;71.58;100188.36;106756;1256;73891;-85
2023/11/29 12:21:55;;;;;;;;;;;;;;;-0.84;71.94;100179.94;106751;1256;124006;-85
2023/11/29 12:24:24;;;;;;;;;;;;;;;-0.84;71.97;100179.59;106885;1254;72052;-82
2023/11/29 12:26:54;;;;;;;;;;;;;;;-0.80;72.17;100179.51;106822;1254;60451;-81